createdAt,value
2018-07-05T00:00:54.738Z,21.02
2018-07-05T00:01:54.988Z,20.96
2018-07-05T00:02:54.494Z,20.95
2018-07-05T00:03:54.701Z,20.95
2018-07-05T00:04:54.968Z,20.9
2018-07-05T00:05:54.684Z,20.87
2018-07-05T00:06:54.677Z,20.84
2018-07-05T00:07:54.939Z,20.8
2018-07-05T00:08:54.658Z,20.76
2018-07-05T00:09:54.656Z,20.86
2018-07-05T00:10:54.643Z,20.79
2018-07-05T00:11:54.367Z,20.81
2018-07-05T00:12:54.621Z,20.8
2018-07-05T00:13:54.610Z,20.77
2018-07-05T00:14:54.338Z,20.79
2018-07-05T00:15:54.864Z,20.68
2018-07-05T00:16:54.585Z,20.69
2018-07-05T00:17:54.844Z,20.74
2018-07-05T00:18:54.834Z,20.59
2018-07-05T00:19:54.564Z,20.64
2018-07-05T00:20:54.554Z,20.56
2018-07-05T00:21:54.539Z,20.59
2018-07-05T00:22:54.533Z,20.56
2018-07-05T00:23:54.524Z,20.49
2018-07-05T00:24:54.774Z,20.5
2018-07-05T00:25:54.503Z,20.43
2018-07-05T00:26:54.495Z,20.42
2018-07-05T00:27:54.496Z,20.41
2018-07-05T00:28:54.737Z,20.39
2018-07-05T00:29:54.460Z,20.47
2018-07-05T00:30:54.717Z,20.42
2018-07-05T00:31:54.711Z,20.33
2018-07-05T00:32:54.437Z,20.3
2018-07-05T00:33:54.691Z,20.3
2018-07-05T00:34:54.413Z,20.31
2018-07-05T00:35:54.413Z,20.3
2018-07-05T00:36:54.395Z,20.27
2018-07-05T00:37:54.662Z,20.25
2018-07-05T00:38:54.644Z,20.31
2018-07-05T00:39:54.638Z,20.27
2018-07-05T00:40:54.357Z,20.21
2018-07-05T00:41:54.085Z,20.2
2018-07-05T00:42:54.342Z,20.25
2018-07-05T00:43:54.329Z,20.23
2018-07-05T00:44:54.587Z,20.25
2018-07-05T00:45:54.583Z,20.2
2018-07-05T00:46:54.039Z,20.1
2018-07-05T00:47:54.291Z,20.18
2018-07-05T00:48:54.548Z,20.15
2018-07-05T00:49:54.272Z,20.16
2018-07-05T00:50:54.267Z,20.09
2018-07-05T00:51:54.252Z,20.13
2018-07-05T00:52:54.245Z,20.12
2018-07-05T00:53:54.498Z,20.09
2018-07-05T00:54:54.501Z,20.06
2018-07-05T00:55:53.952Z,20.05
2018-07-05T00:56:54.513Z,19.98
2018-07-05T00:57:54.464Z,19.98
2018-07-05T00:58:54.185Z,19.93
2018-07-05T00:59:54.444Z,19.97
2018-07-05T01:00:54.429Z,19.95
2018-07-05T01:01:54.159Z,19.97
2018-07-05T01:02:54.411Z,19.91
2018-07-05T01:03:54.141Z,19.9
2018-07-05T01:04:54.396Z,19.8
2018-07-05T01:05:54.389Z,19.84
2018-07-05T01:06:53.848Z,19.78
2018-07-05T01:07:54.096Z,19.78
2018-07-05T01:08:54.091Z,19.79
2018-07-05T01:09:54.343Z,19.8
2018-07-05T01:10:54.077Z,19.8
2018-07-05T01:11:54.333Z,19.75
2018-07-05T01:12:54.048Z,19.73
2018-07-05T01:13:54.301Z,19.72
2018-07-05T01:14:54.296Z,19.69
2018-07-05T01:15:54.285Z,19.68
2018-07-05T01:16:54.018Z,19.63
2018-07-05T01:17:54.002Z,19.68
2018-07-05T01:18:54.251Z,19.68
2018-07-05T01:19:53.979Z,19.72
2018-07-05T01:20:54.232Z,19.61
2018-07-05T01:21:53.961Z,19.54
2018-07-05T01:22:54.210Z,19.5
2018-07-05T01:23:53.672Z,19.57
2018-07-05T01:24:53.927Z,19.51
2018-07-05T01:25:53.656Z,19.5
2018-07-05T01:26:53.646Z,19.51
2018-07-05T01:27:53.903Z,19.53
2018-07-05T01:28:54.157Z,19.57
2018-07-05T01:29:54.147Z,19.58
2018-07-05T01:30:54.132Z,19.57
2018-07-05T01:31:53.857Z,19.57
2018-07-05T01:32:53.853Z,19.51
2018-07-05T01:33:54.106Z,19.53
2018-07-05T01:34:54.098Z,19.54
2018-07-05T01:35:54.081Z,19.48
2018-07-05T01:36:53.809Z,19.51
2018-07-05T01:37:54.068Z,19.43
2018-07-05T01:38:54.060Z,19.46
2018-07-05T01:39:54.042Z,19.46
2018-07-05T01:40:53.771Z,19.47
2018-07-05T01:41:54.280Z,19.54
2018-07-05T01:42:54.014Z,19.48
2018-07-05T01:43:54.002Z,19.58
2018-07-05T01:44:53.730Z,19.55
2018-07-05T01:45:53.992Z,19.53
2018-07-05T01:46:53.715Z,19.5
2018-07-05T01:47:53.704Z,19.53
2018-07-05T01:48:53.693Z,19.5
2018-07-05T01:49:53.682Z,19.6
2018-07-05T01:50:53.677Z,19.61
2018-07-05T01:51:53.921Z,19.55
2018-07-05T01:52:53.920Z,19.61
2018-07-05T01:53:53.913Z,19.66
2018-07-05T01:54:53.895Z,19.47
2018-07-05T01:55:53.623Z,19.51
2018-07-05T01:56:53.346Z,19.51
2018-07-05T01:57:53.860Z,19.5
2018-07-05T01:58:53.856Z,19.47
2018-07-05T01:59:53.841Z,19.42
2018-07-05T02:00:53.830Z,19.46
2018-07-05T02:01:53.562Z,19.4
2018-07-05T02:02:53.552Z,19.39
2018-07-05T02:03:53.818Z,19.36
2018-07-05T02:04:53.816Z,19.31
2018-07-05T02:05:53.525Z,19.28
2018-07-05T02:06:53.514Z,19.25
2018-07-05T02:07:53.762Z,19.28
2018-07-05T02:08:53.755Z,19.29
2018-07-05T02:09:53.484Z,19.24
2018-07-05T02:10:53.733Z,19.23
2018-07-05T02:11:53.458Z,19.17
2018-07-05T02:12:53.452Z,19.24
2018-07-05T02:13:53.450Z,19.11
2018-07-05T02:14:53.691Z,19.08
2018-07-05T02:15:53.685Z,19.05
2018-07-05T02:16:53.674Z,19.05
2018-07-05T02:17:53.403Z,19.01
2018-07-05T02:18:53.387Z,19.01
2018-07-05T02:19:53.639Z,18.99
2018-07-05T02:20:53.369Z,18.97
2018-07-05T02:21:53.353Z,18.87
2018-07-05T02:22:53.617Z,18.92
2018-07-05T02:23:53.332Z,18.92
2018-07-05T02:24:53.588Z,18.83
2018-07-05T02:25:53.322Z,18.86
2018-07-05T02:26:53.305Z,18.92
2018-07-05T02:27:53.292Z,18.86
2018-07-05T02:28:53.286Z,18.92
2018-07-05T02:29:53.273Z,18.82
2018-07-05T02:30:53.264Z,18.95
2018-07-05T02:31:53.255Z,18.9
2018-07-05T02:32:53.243Z,18.87
2018-07-05T02:33:53.245Z,18.92
2018-07-05T02:34:53.253Z,18.92
2018-07-05T02:35:53.218Z,18.91
2018-07-05T02:36:53.472Z,18.79
2018-07-05T02:37:53.459Z,18.77
2018-07-05T02:38:52.914Z,18.8
2018-07-05T02:39:53.432Z,18.76
2018-07-05T02:40:53.435Z,18.73
2018-07-05T02:41:52.886Z,18.8
2018-07-05T02:42:53.397Z,18.74
2018-07-05T02:43:53.131Z,18.7
2018-07-05T02:44:53.125Z,18.64
2018-07-05T02:45:53.372Z,18.67
2018-07-05T02:46:53.364Z,18.61
2018-07-05T02:47:53.104Z,18.59
2018-07-05T02:48:53.377Z,18.59
2018-07-05T02:49:53.073Z,18.54
2018-07-05T02:50:53.061Z,18.65
2018-07-05T02:51:52.779Z,18.52
2018-07-05T02:52:53.033Z,18.61
2018-07-05T02:53:53.294Z,18.47
2018-07-05T02:54:53.281Z,18.43
2018-07-05T02:55:53.005Z,18.47
2018-07-05T02:56:52.994Z,18.46
2018-07-05T02:57:52.989Z,18.39
2018-07-05T02:58:53.252Z,18.4
2018-07-05T02:59:53.222Z,18.44
2018-07-05T03:00:53.221Z,18.4
2018-07-05T03:01:53.197Z,18.34
2018-07-05T03:02:53.191Z,18.37
2018-07-05T03:03:52.925Z,18.36
2018-07-05T03:04:52.919Z,18.29
2018-07-05T03:05:52.908Z,18.33
2018-07-05T03:06:53.155Z,18.28
2018-07-05T03:07:52.877Z,18.28
2018-07-05T03:08:52.864Z,18.29
2018-07-05T03:09:53.116Z,18.24
2018-07-05T03:10:52.843Z,18.19
2018-07-05T03:11:53.089Z,18.22
2018-07-05T03:12:53.093Z,18.18
2018-07-05T03:13:52.809Z,18.12
2018-07-05T03:14:52.796Z,18.13
2018-07-05T03:15:53.068Z,18.13
2018-07-05T03:16:52.774Z,18.13
2018-07-05T03:17:52.775Z,18.17
2018-07-05T03:18:53.017Z,18.07
2018-07-05T03:19:53.005Z,18.07
2018-07-05T03:20:52.993Z,18.1
2018-07-05T03:21:52.721Z,18.15
2018-07-05T03:22:52.982Z,18.15
2018-07-05T03:23:52.962Z,18.09
2018-07-05T03:24:52.688Z,18.06
2018-07-05T03:25:52.420Z,18.07
2018-07-05T03:26:52.667Z,18.06
2018-07-05T03:27:52.917Z,18.12
2018-07-05T03:28:52.904Z,18.07
2018-07-05T03:29:52.628Z,18.15
2018-07-05T03:30:52.623Z,18.19
2018-07-05T03:31:52.614Z,18.13
2018-07-05T03:32:52.598Z,18.15
2018-07-05T03:33:52.590Z,18.15
2018-07-05T03:34:52.581Z,18.15
2018-07-05T03:35:52.578Z,18.21
2018-07-05T03:36:52.551Z,18.18
2018-07-05T03:37:52.552Z,18.12
2018-07-05T03:38:52.801Z,18.21
2018-07-05T03:39:52.524Z,18.18
2018-07-05T03:40:52.779Z,18.31
2018-07-05T03:41:52.963Z,18.25
2018-07-05T03:42:52.790Z,18.36
2018-07-05T03:43:52.739Z,18.34
2018-07-05T03:44:52.464Z,18.4
2018-07-05T03:45:52.193Z,18.43
2018-07-05T03:46:52.711Z,18.46
2018-07-05T03:47:52.172Z,18.47
2018-07-05T03:48:52.425Z,18.47
2018-07-05T03:49:52.675Z,18.47
2018-07-05T03:50:52.407Z,18.4
2018-07-05T03:51:52.392Z,18.52
2018-07-05T03:52:52.682Z,18.49
2018-07-05T03:53:52.103Z,18.4
2018-07-05T03:54:52.355Z,18.47
2018-07-05T03:55:52.347Z,18.52
2018-07-05T03:56:52.610Z,18.54
2018-07-05T03:57:52.590Z,18.57
2018-07-05T03:58:52.319Z,18.39
2018-07-05T03:59:52.565Z,18.52
2018-07-05T04:00:52.301Z,18.61
2018-07-05T04:01:52.549Z,18.55
2018-07-05T04:02:52.543Z,18.54
2018-07-05T04:03:52.522Z,18.55
2018-07-05T04:04:52.524Z,18.58
2018-07-05T04:05:52.502Z,18.68
2018-07-05T04:06:52.224Z,18.59
2018-07-05T04:07:52.227Z,18.54
2018-07-05T04:08:51.944Z,18.58
2018-07-05T04:09:52.194Z,18.62
2018-07-05T04:10:52.187Z,18.62
2018-07-05T04:11:52.443Z,18.59
2018-07-05T04:12:52.162Z,18.65
2018-07-05T04:13:51.886Z,18.74
2018-07-05T04:14:52.408Z,18.8
2018-07-05T04:15:52.210Z,18.82
2018-07-05T04:16:52.121Z,18.8
2018-07-05T04:17:52.110Z,18.79
2018-07-05T04:18:52.359Z,18.87
2018-07-05T04:19:52.351Z,18.87
2018-07-05T04:20:52.353Z,18.91
2018-07-05T04:21:52.328Z,18.94
2018-07-05T04:22:52.327Z,18.92
2018-07-05T04:23:51.782Z,18.99
2018-07-05T04:24:52.303Z,18.99
2018-07-05T04:25:51.762Z,18.98
2018-07-05T04:26:52.015Z,18.95
2018-07-05T04:27:52.266Z,18.94
2018-07-05T04:28:51.729Z,18.9
2018-07-05T04:29:51.981Z,18.94
2018-07-05T04:30:52.240Z,18.95
2018-07-05T04:31:51.966Z,18.99
2018-07-05T04:32:52.212Z,18.92
2018-07-05T04:33:51.939Z,18.9
2018-07-05T04:34:52.201Z,18.97
2018-07-05T04:35:51.920Z,18.94
2018-07-05T04:36:52.181Z,18.95
2018-07-05T04:37:51.634Z,18.9
2018-07-05T04:38:52.165Z,18.86
2018-07-05T04:39:52.142Z,18.87
2018-07-05T04:40:52.126Z,18.84
2018-07-05T04:41:51.859Z,18.9
2018-07-05T04:42:52.111Z,18.8
2018-07-05T04:43:51.565Z,18.82
2018-07-05T04:44:52.092Z,18.82
2018-07-05T04:45:52.076Z,18.8
2018-07-05T04:46:51.803Z,18.8
2018-07-05T04:47:51.816Z,18.92
2018-07-05T04:48:51.779Z,18.86
2018-07-05T04:49:52.042Z,18.86
2018-07-05T04:50:51.755Z,18.84
2018-07-05T04:51:52.014Z,18.98
2018-07-05T04:52:51.741Z,18.98
2018-07-05T04:53:51.730Z,19.06
2018-07-05T04:54:51.981Z,18.99
2018-07-05T04:55:51.979Z,19.11
2018-07-05T04:56:51.696Z,19.14
2018-07-05T04:57:51.950Z,19.15
2018-07-05T04:58:51.681Z,19.23
2018-07-05T04:59:51.926Z,19.17
2018-07-05T05:00:51.922Z,19.18
2018-07-05T05:01:51.645Z,19.36
2018-07-05T05:02:51.638Z,19.35
2018-07-05T05:03:51.895Z,19.38
2018-07-05T05:04:51.609Z,19.36
2018-07-05T05:05:51.869Z,19.39
2018-07-05T05:06:51.593Z,19.38
2018-07-05T05:07:51.844Z,19.54
2018-07-05T05:08:52.064Z,19.51
2018-07-05T05:09:51.559Z,19.61
2018-07-05T05:10:51.292Z,19.61
2018-07-05T05:11:51.542Z,19.79
2018-07-05T05:12:51.534Z,19.79
2018-07-05T05:13:51.520Z,19.79
2018-07-05T05:14:51.513Z,19.88
2018-07-05T05:15:51.505Z,19.87
2018-07-05T05:16:51.493Z,19.91
2018-07-05T05:17:51.481Z,19.88
2018-07-05T05:18:51.575Z,20
2018-07-05T05:19:51.736Z,19.95
2018-07-05T05:20:51.712Z,19.98
2018-07-05T05:21:51.704Z,19.95
2018-07-05T05:22:51.168Z,19.91
2018-07-05T05:23:51.682Z,19.97
2018-07-05T05:24:51.151Z,20.03
2018-07-05T05:25:51.666Z,20
2018-07-05T05:26:51.396Z,19.98
2018-07-05T05:27:51.650Z,19.98
2018-07-05T05:28:51.639Z,20.06
2018-07-05T05:29:51.371Z,20.1
2018-07-05T05:30:51.621Z,20.13
2018-07-05T05:31:51.349Z,20.1
2018-07-05T05:32:51.330Z,20.13
2018-07-05T05:33:51.590Z,20.09
2018-07-05T05:34:51.050Z,20.13
2018-07-05T05:35:51.573Z,20.13
2018-07-05T05:36:51.563Z,20.18
2018-07-05T05:37:51.027Z,20.15
2018-07-05T05:38:51.306Z,20.18
2018-07-05T05:39:51.533Z,20.13
2018-07-05T05:40:51.257Z,20.24
2018-07-05T05:41:51.249Z,20.2
2018-07-05T05:42:51.242Z,20.21
2018-07-05T05:43:51.493Z,20.28
2018-07-05T05:44:50.962Z,20.21
2018-07-05T05:45:51.221Z,20.21
2018-07-05T05:46:51.465Z,20.23
2018-07-05T05:47:51.630Z,20.27
2018-07-05T05:48:51.448Z,20.31
2018-07-05T05:49:51.170Z,20.25
2018-07-05T05:50:51.161Z,20.35
2018-07-05T05:51:51.152Z,20.43
2018-07-05T05:52:51.150Z,20.42
2018-07-05T05:53:51.399Z,20.38
2018-07-05T05:54:51.123Z,20.39
2018-07-05T05:55:51.117Z,20.39
2018-07-05T05:56:51.373Z,20.42
2018-07-05T05:57:51.097Z,20.41
2018-07-05T05:58:51.357Z,20.43
2018-07-05T05:59:51.344Z,20.5
2018-07-05T06:00:51.066Z,20.53
2018-07-05T06:01:51.170Z,20.54
2018-07-05T06:02:51.055Z,20.64
2018-07-05T06:03:51.309Z,20.54
2018-07-05T06:04:51.295Z,20.58
2018-07-05T06:05:50.761Z,20.58
2018-07-05T06:06:51.018Z,20.62
2018-07-05T06:07:51.271Z,20.61
2018-07-05T06:08:51.002Z,20.56
2018-07-05T06:09:50.722Z,20.54
2018-07-05T06:10:50.977Z,20.69
2018-07-05T06:11:51.241Z,20.59
2018-07-05T06:12:50.958Z,20.68
2018-07-05T06:13:51.221Z,20.68
2018-07-05T06:14:51.211Z,20.69
2018-07-05T06:15:50.941Z,20.71
2018-07-05T06:16:51.192Z,20.71
2018-07-05T06:17:50.649Z,20.69
2018-07-05T06:18:51.179Z,20.77
2018-07-05T06:19:50.896Z,20.8
2018-07-05T06:20:50.886Z,20.68
2018-07-05T06:21:50.879Z,20.84
2018-07-05T06:22:50.871Z,20.83
2018-07-05T06:23:50.867Z,20.9
2018-07-05T06:24:50.855Z,21.05
2018-07-05T06:25:50.838Z,21.23
2018-07-05T06:26:51.099Z,21.3
2018-07-05T06:27:50.825Z,21.38
2018-07-05T06:28:51.080Z,21.48
2018-07-05T06:29:50.541Z,21.53
2018-07-05T06:30:50.536Z,21.5
2018-07-05T06:31:50.789Z,21.54
2018-07-05T06:32:51.044Z,21.56
2018-07-05T06:33:50.506Z,21.61
2018-07-05T06:34:51.035Z,21.72
2018-07-05T06:35:51.015Z,21.72
2018-07-05T06:36:50.500Z,21.79
2018-07-05T06:37:50.782Z,21.83
2018-07-05T06:38:50.737Z,21.92
2018-07-05T06:39:50.998Z,21.91
2018-07-05T06:40:50.722Z,21.97
2018-07-05T06:41:50.712Z,21.95
2018-07-05T06:42:50.966Z,21.95
2018-07-05T06:43:50.688Z,22.02
2018-07-05T06:44:50.689Z,22.12
2018-07-05T06:45:50.671Z,22.23
2018-07-05T06:46:50.936Z,22.14
2018-07-05T06:47:50.397Z,22.28
2018-07-05T06:48:50.392Z,22.32
2018-07-05T06:49:50.640Z,22.32
2018-07-05T06:50:50.908Z,22.44
2018-07-05T06:51:50.628Z,22.43
2018-07-05T06:52:50.887Z,22.5
2018-07-05T06:53:50.347Z,22.49
2018-07-05T06:54:50.615Z,22.46
2018-07-05T06:55:50.860Z,22.43
2018-07-05T06:56:50.856Z,22.46
2018-07-05T06:57:50.845Z,22.6
2018-07-05T06:58:50.835Z,22.56
2018-07-05T06:59:50.567Z,22.68
2018-07-05T07:00:50.560Z,22.56
2018-07-05T07:01:50.820Z,22.64
2018-07-05T07:02:50.541Z,22.69
2018-07-05T07:03:50.277Z,22.62
2018-07-05T07:04:50.797Z,22.68
2018-07-05T07:05:50.517Z,22.62
2018-07-05T07:06:50.247Z,22.68
2018-07-05T07:07:50.765Z,22.69
2018-07-05T07:08:50.762Z,22.68
2018-07-05T07:09:50.225Z,22.68
2018-07-05T07:10:50.746Z,22.69
2018-07-05T07:11:50.476Z,22.69
2018-07-05T07:12:50.729Z,22.75
2018-07-05T07:13:50.458Z,22.72
2018-07-05T07:14:50.451Z,22.65
2018-07-05T07:15:50.707Z,22.68
2018-07-05T07:16:50.722Z,22.72
2018-07-05T07:17:50.429Z,22.71
2018-07-05T07:18:50.424Z,22.67
2018-07-05T07:19:50.154Z,22.77
2018-07-05T07:20:50.671Z,22.86
2018-07-05T07:21:50.404Z,22.93
2018-07-05T07:22:50.395Z,22.94
2018-07-05T07:23:50.384Z,23.02
2018-07-05T07:24:50.641Z,23.02
2018-07-05T07:25:50.113Z,23.07
2018-07-05T07:26:50.633Z,23.08
2018-07-05T07:27:50.621Z,23.12
2018-07-05T07:28:50.345Z,23.14
2018-07-05T07:29:50.601Z,23.11
2018-07-05T07:30:50.594Z,23.07
2018-07-05T07:31:50.586Z,23.15
2018-07-05T07:32:50.061Z,23.09
2018-07-05T07:33:50.070Z,23.05
2018-07-05T07:34:50.581Z,23.14
2018-07-05T07:35:50.299Z,23.04
2018-07-05T07:36:50.292Z,23.04
2018-07-05T07:37:50.282Z,22.94
2018-07-05T07:38:50.539Z,23.02
2018-07-05T07:39:50.272Z,23.08
2018-07-05T07:40:50.530Z,23.04
2018-07-05T07:41:50.250Z,23.26
2018-07-05T07:42:50.724Z,23.4
2018-07-05T07:43:50.239Z,23.38
2018-07-05T07:44:50.501Z,23.61
2018-07-05T07:45:50.709Z,23.75
2018-07-05T07:46:50.223Z,23.86
2018-07-05T07:47:50.209Z,23.85
2018-07-05T07:48:50.480Z,23.92
2018-07-05T07:49:50.197Z,24
2018-07-05T07:50:50.449Z,23.94
2018-07-05T07:51:50.187Z,23.86
2018-07-05T07:52:50.440Z,23.92
2018-07-05T07:53:50.181Z,24.04
2018-07-05T07:54:50.449Z,24.2
2018-07-05T07:55:50.170Z,24.59
2018-07-05T07:56:50.424Z,24.85
2018-07-05T07:57:50.409Z,24.95
2018-07-05T07:58:50.144Z,25.01
2018-07-05T07:59:50.136Z,25.12
2018-07-05T08:00:50.385Z,25.31
2018-07-05T08:01:50.383Z,25.54
2018-07-05T08:02:50.119Z,25.65
2018-07-05T08:03:50.380Z,25.83
2018-07-05T08:04:50.107Z,26.04
2018-07-05T08:05:49.840Z,26.06
2018-07-05T08:06:50.354Z,26.32
2018-07-05T08:07:50.090Z,26.46
2018-07-05T08:08:50.353Z,26.55
2018-07-05T08:09:50.337Z,26.73
2018-07-05T08:10:50.073Z,26.84
2018-07-05T08:11:49.800Z,27.14
2018-07-05T08:12:50.073Z,27.46
2018-07-05T08:13:50.321Z,27.43
2018-07-05T08:14:50.057Z,27.59
2018-07-05T08:15:49.793Z,27.69
2018-07-05T08:16:50.630Z,27.84
2018-07-05T08:17:50.313Z,28.11
2018-07-05T08:18:50.309Z,28.33
2018-07-05T08:19:50.042Z,28.6
2018-07-05T08:20:50.028Z,28.68
2018-07-05T08:21:50.021Z,28.8
2018-07-05T08:22:50.301Z,28.77
2018-07-05T08:23:50.018Z,28.82
2018-07-05T08:24:50.274Z,28.82
2018-07-05T08:25:50.271Z,28.6
2018-07-05T08:26:50.008Z,28.56
2018-07-05T08:27:50.008Z,28.75
2018-07-05T08:28:50.265Z,28.96
2018-07-05T08:29:50.263Z,29.18
2018-07-05T08:30:49.740Z,29.23
2018-07-05T08:31:49.992Z,29.01
2018-07-05T08:32:49.994Z,28.9
2018-07-05T08:33:50.019Z,28.9
2018-07-05T08:34:50.255Z,29.03
2018-07-05T08:35:50.254Z,29.11
2018-07-05T08:36:50.253Z,28.88
2018-07-05T08:37:50.104Z,28.78
2018-07-05T08:38:49.979Z,28.62
2018-07-05T08:39:50.287Z,28.43
2018-07-05T08:40:49.975Z,28.46
2018-07-05T08:41:50.234Z,28.43
2018-07-05T08:42:50.226Z,28.41
2018-07-05T08:43:50.229Z,28.28
2018-07-05T08:44:50.391Z,27.89
2018-07-05T08:45:49.957Z,27.85
2018-07-05T08:46:50.214Z,27.74
2018-07-05T08:47:49.945Z,27.76
2018-07-05T08:48:49.948Z,27.57
2018-07-05T08:49:50.204Z,27.57
2018-07-05T08:50:50.204Z,27.42
2018-07-05T08:51:49.935Z,27.31
2018-07-05T08:52:50.197Z,27.35
2018-07-05T08:53:50.189Z,27.17
2018-07-05T08:54:50.190Z,27.09
2018-07-05T08:55:49.919Z,26.99
2018-07-05T08:56:50.193Z,27.01
2018-07-05T08:57:50.180Z,26.86
2018-07-05T08:58:49.919Z,26.81
2018-07-05T08:59:49.915Z,26.94
2018-07-05T09:00:49.903Z,26.96
2018-07-05T09:01:49.902Z,27.2
2018-07-05T09:02:49.910Z,27.54
2018-07-05T09:03:49.897Z,28.01
2018-07-05T09:04:50.163Z,28.78
2018-07-05T09:05:50.164Z,29.29
2018-07-05T09:06:49.632Z,29.59
2018-07-05T09:07:50.173Z,29.89
2018-07-05T09:08:50.162Z,30.14
2018-07-05T09:09:50.158Z,30.61
2018-07-05T09:10:49.892Z,30.99
2018-07-05T09:11:50.188Z,31.21
2018-07-05T09:12:49.895Z,31.36
2018-07-05T09:13:49.631Z,31.46
2018-07-05T09:14:50.170Z,31.48
2018-07-05T09:15:49.900Z,31.2
2018-07-05T09:16:50.160Z,31.26
2018-07-05T09:17:50.535Z,31.21
2018-07-05T09:18:49.899Z,31.17
2018-07-05T09:19:49.899Z,30.98
2018-07-05T09:20:50.165Z,30.68
2018-07-05T09:21:49.909Z,30.19
2018-07-05T09:22:49.641Z,30
2018-07-05T09:23:49.706Z,29.89
2018-07-05T09:24:49.644Z,29.74
2018-07-05T09:25:49.908Z,29.66
2018-07-05T09:26:49.660Z,29.56
2018-07-05T09:27:49.645Z,29.56
2018-07-05T09:28:50.176Z,29.57
2018-07-05T09:29:49.914Z,29.56
2018-07-05T09:30:50.180Z,29.81
2018-07-05T09:31:49.910Z,29.92
2018-07-05T09:32:50.180Z,29.82
2018-07-05T09:33:50.176Z,29.72
2018-07-05T09:34:50.178Z,29.7
2018-07-05T09:35:49.917Z,29.72
2018-07-05T09:36:50.181Z,29.72
2018-07-05T09:37:50.180Z,29.49
2018-07-05T09:38:49.907Z,29.37
2018-07-05T09:39:49.913Z,29.45
2018-07-05T09:40:49.651Z,29.56
2018-07-05T09:41:49.918Z,29.9
2018-07-05T09:42:49.856Z,30.18
2018-07-05T09:43:50.193Z,30.21
2018-07-05T09:44:49.918Z,30.56
2018-07-05T09:45:49.915Z,30.64
2018-07-05T09:46:49.920Z,30.54
2018-07-05T09:47:49.663Z,30.31
2018-07-05T09:48:49.924Z,30.26
2018-07-05T09:49:49.919Z,30.02
2018-07-05T09:50:49.921Z,29.84
2018-07-05T09:51:49.921Z,29.59
2018-07-05T09:52:50.432Z,29.56
2018-07-05T09:53:49.911Z,29.6
2018-07-05T09:54:49.921Z,29.62
2018-07-05T09:55:49.911Z,29.59
2018-07-05T09:56:49.915Z,29.53
2018-07-05T09:57:50.173Z,29.33
2018-07-05T09:58:49.911Z,29.1
2018-07-05T09:59:49.651Z,29.07
2018-07-05T10:00:49.643Z,28.88
2018-07-05T10:01:49.912Z,28.82
2018-07-05T10:02:50.170Z,28.8
2018-07-05T10:03:50.548Z,28.69
2018-07-05T10:04:49.902Z,28.6
2018-07-05T10:05:50.173Z,28.59
2018-07-05T10:06:50.168Z,28.4
2018-07-05T10:07:49.911Z,28.36
2018-07-05T10:08:50.166Z,28.36
2018-07-05T10:09:49.896Z,28.43
2018-07-05T10:10:49.894Z,28.56
2018-07-05T10:11:49.894Z,28.46
2018-07-05T10:12:50.146Z,28.5
2018-07-05T10:13:51.063Z,28.44
2018-07-05T10:14:49.884Z,28.53
2018-07-05T10:15:49.895Z,28.6
2018-07-05T10:16:49.880Z,28.58
2018-07-05T10:17:50.147Z,28.69
2018-07-05T10:18:49.886Z,28.96
2018-07-05T10:19:50.144Z,29.15
2018-07-05T10:20:49.612Z,29.45
2018-07-05T10:21:49.867Z,29.56
2018-07-05T10:22:49.874Z,29.31
2018-07-05T10:23:49.872Z,29.2
2018-07-05T10:24:50.128Z,29.11
2018-07-05T10:25:50.125Z,29
2018-07-05T10:26:49.908Z,28.9
2018-07-05T10:27:49.597Z,28.8
2018-07-05T10:28:50.130Z,28.72
2018-07-05T10:29:49.857Z,28.72
2018-07-05T10:30:49.854Z,28.72
2018-07-05T10:31:50.123Z,28.62
2018-07-05T10:32:49.902Z,28.4
2018-07-05T10:33:50.128Z,28.35
2018-07-05T10:34:49.849Z,28.36
2018-07-05T10:35:50.115Z,28.36
2018-07-05T10:36:49.842Z,28.33
2018-07-05T10:37:49.848Z,28.36
2018-07-05T10:38:49.838Z,28.32
2018-07-05T10:39:50.233Z,28.17
2018-07-05T10:40:49.836Z,28.1
2018-07-05T10:41:50.098Z,28.1
2018-07-05T10:42:50.097Z,28.13
2018-07-05T10:43:49.827Z,28.1
2018-07-05T10:44:50.090Z,28.09
2018-07-05T10:45:50.086Z,28.09
2018-07-05T10:46:50.088Z,27.98
2018-07-05T10:47:50.082Z,27.88
2018-07-05T10:48:50.091Z,27.84
2018-07-05T10:49:49.813Z,27.85
2018-07-05T10:50:49.811Z,27.86
2018-07-05T10:51:49.542Z,27.74
2018-07-05T10:52:49.816Z,27.62
2018-07-05T10:53:50.069Z,27.64
2018-07-05T10:54:49.530Z,27.73
2018-07-05T10:55:49.800Z,27.64
2018-07-05T10:56:49.536Z,27.69
2018-07-05T10:57:49.787Z,27.64
2018-07-05T10:58:49.783Z,27.71
2018-07-05T10:59:49.785Z,27.74
2018-07-05T11:00:49.778Z,27.85
2018-07-05T11:01:49.786Z,27.88
2018-07-05T11:02:49.772Z,27.92
2018-07-05T11:03:49.774Z,27.88
2018-07-05T11:04:49.760Z,27.89
2018-07-05T11:05:50.035Z,27.92
2018-07-05T11:06:50.018Z,27.86
2018-07-05T11:07:50.015Z,27.88
2018-07-05T11:08:49.751Z,27.89
2018-07-05T11:09:49.744Z,27.98
2018-07-05T11:10:49.747Z,27.98
2018-07-05T11:11:49.745Z,27.92
2018-07-05T11:12:49.999Z,27.91
2018-07-05T11:13:49.735Z,27.95
2018-07-05T11:14:49.958Z,28.06
2018-07-05T11:15:49.990Z,28.09
2018-07-05T11:16:50.179Z,28.14
2018-07-05T11:17:49.716Z,28.21
2018-07-05T11:18:49.983Z,28.17
2018-07-05T11:19:49.713Z,28.26
2018-07-05T11:20:49.753Z,28.41
2018-07-05T11:21:49.976Z,28.59
2018-07-05T11:22:49.701Z,28.66
2018-07-05T11:23:49.696Z,28.81
2018-07-05T11:24:49.958Z,28.81
2018-07-05T11:25:49.955Z,28.8
2018-07-05T11:26:49.689Z,28.82
2018-07-05T11:27:49.947Z,28.8
2018-07-05T11:28:49.949Z,28.81
2018-07-05T11:29:49.678Z,28.7
2018-07-05T11:30:49.670Z,28.78
2018-07-05T11:31:49.939Z,28.7
2018-07-05T11:32:49.934Z,28.75
2018-07-05T11:33:49.409Z,28.75
2018-07-05T11:34:49.667Z,28.69
2018-07-05T11:35:49.929Z,28.77
2018-07-05T11:36:49.390Z,28.88
2018-07-05T11:37:49.918Z,28.96
2018-07-05T11:38:49.655Z,28.96
2018-07-05T11:39:49.914Z,29.03
2018-07-05T11:40:49.915Z,29
2018-07-05T11:41:49.907Z,29.08
2018-07-05T11:42:50.045Z,29.2
2018-07-05T11:43:49.903Z,29.22
2018-07-05T11:44:49.371Z,29.22
2018-07-05T11:45:49.638Z,29.19
2018-07-05T11:46:49.761Z,29.22
2018-07-05T11:47:49.994Z,29.1
2018-07-05T11:48:49.372Z,29.13
2018-07-05T11:49:49.363Z,29.15
2018-07-05T11:50:49.926Z,29.15
2018-07-05T11:51:49.357Z,29.23
2018-07-05T11:52:49.618Z,29.25
2018-07-05T11:53:49.881Z,29.29
2018-07-05T11:54:49.948Z,29.29
2018-07-05T11:55:49.346Z,29.35
2018-07-05T11:56:49.885Z,29.34
2018-07-05T11:57:49.602Z,29.59
2018-07-05T11:58:49.736Z,29.87
2018-07-05T11:59:49.880Z,29.92
2018-07-05T12:00:49.598Z,30.18
2018-07-05T12:01:49.339Z,30.45
2018-07-05T12:02:49.995Z,30.57
2018-07-05T12:03:49.863Z,30.46
2018-07-05T12:04:49.879Z,30.47
2018-07-05T12:05:49.876Z,30.61
2018-07-05T12:06:49.860Z,30.76
2018-07-05T12:07:49.597Z,30.89
2018-07-05T12:08:49.723Z,30.94
2018-07-05T12:09:49.328Z,30.87
2018-07-05T12:10:49.865Z,30.98
2018-07-05T12:11:49.590Z,31.13
2018-07-05T12:12:49.870Z,31.57
2018-07-05T12:13:49.329Z,31.79
2018-07-05T12:14:49.598Z,31.93
2018-07-05T12:15:49.594Z,32.11
2018-07-05T12:16:49.861Z,32.2
2018-07-05T12:17:49.338Z,32.35
2018-07-05T12:18:49.877Z,32.42
2018-07-05T12:19:49.868Z,32.24
2018-07-05T12:20:49.873Z,32.4
2018-07-05T12:21:49.607Z,32.48
2018-07-05T12:22:49.879Z,32.59
2018-07-05T12:23:49.342Z,32.54
2018-07-05T12:24:49.347Z,32.48
2018-07-05T12:25:49.620Z,32.25
2018-07-05T12:26:49.612Z,32.2
2018-07-05T12:27:49.362Z,31.96
2018-07-05T12:28:49.889Z,31.82
2018-07-05T12:29:49.624Z,31.68
2018-07-05T12:30:49.891Z,31.6
2018-07-05T12:31:49.900Z,31.45
2018-07-05T12:32:49.888Z,31.35
2018-07-05T12:33:49.909Z,31.3
2018-07-05T12:34:49.636Z,31.24
2018-07-05T12:35:49.901Z,31.11
2018-07-05T12:36:49.911Z,31.08
2018-07-05T12:37:49.373Z,31.18
2018-07-05T12:38:49.641Z,31.05
2018-07-05T12:39:49.648Z,31.09
2018-07-05T12:40:49.637Z,31.08
2018-07-05T12:41:49.640Z,31.17
2018-07-05T12:42:49.643Z,30.99
2018-07-05T12:43:49.907Z,30.72
2018-07-05T12:44:49.645Z,30.52
2018-07-05T12:45:49.394Z,30.33
2018-07-05T12:46:49.648Z,30.21
2018-07-05T12:47:49.379Z,30.09
2018-07-05T12:48:49.384Z,29.97
2018-07-05T12:49:49.905Z,30.02
2018-07-05T12:50:49.912Z,29.99
2018-07-05T12:51:49.388Z,30.03
2018-07-05T12:52:49.922Z,30.08
2018-07-05T12:53:49.913Z,30.05
2018-07-05T12:54:49.379Z,30.12
2018-07-05T12:55:49.646Z,29.97
2018-07-05T12:56:49.645Z,30.07